Acompanhamento e Previsões Julho / 2013

Página 28 de 28 Anterior  1 ... 15 ... 26, 27, 28

Ver o tópico anterior Ver o tópico seguinte Ir em baixo

Re: Acompanhamento e Previsões Julho / 2013

Mensagem por Daniel SM em Qua Jul 31, 2013 11:42 pm

Começo de madrugada fria, mas nem tanto como nos dias anteriores na Capital SP.

Temos 14 graus na Penha (CGE), contra 13 de ontem e 10 de segunda para terça!

Em relação as temperaturas máximas nas serras do sul, eu também fiquei bem impressionado. A JBN parecia estar à mil nessa quarta!
avatar
Daniel SM

Mensagens : 326
Data de inscrição : 12/05/2013
Idade : 32
Localização : São Paulo - SP

Voltar ao Topo Ir em baixo

Re: Acompanhamento e Previsões Julho / 2013

Mensagem por Zeca em Qui Ago 01, 2013 5:20 am

Eitia Santa Maria!!!!

SBSM 010900Z 01010G20KT CAVOK 25/08 Q1011 34%... INMET com 22,9ºC; 45%; 1011 com rajada No em 25Km/h... Aqui, às 04:30h, chegou à 39Km/h e agora está em 23Km/h com 21,6ºC e 43%... Dez dias com chuvas????...

_________________
O Tempo faz parte da Intuição Pura manifestando-se nas ações da Natureza

Não alimentem os Trolls
avatar
Zeca
Admin

Mensagens : 509
Data de inscrição : 12/05/2013
Localização : Santa Maria - RS

Voltar ao Topo Ir em baixo

Re: Acompanhamento e Previsões Julho / 2013

Mensagem por Zeca em Qui Ago 01, 2013 8:50 am

Baixada do Manduca fora do ar?????...

Aqui pré frontal pegando... 24,4ºC com 39% e 23.8Km/h... SBSM 011200Z 36010G20KT CAVOK 27/08 Q1012 30%... Chegou em 51Km/h no aero Shocked ...

_________________
O Tempo faz parte da Intuição Pura manifestando-se nas ações da Natureza

Não alimentem os Trolls
avatar
Zeca
Admin

Mensagens : 509
Data de inscrição : 12/05/2013
Localização : Santa Maria - RS

Voltar ao Topo Ir em baixo

Re: Acompanhamento e Previsões Julho / 2013

Mensagem por Zeca em Qui Ago 01, 2013 10:32 am

..........

_________________
O Tempo faz parte da Intuição Pura manifestando-se nas ações da Natureza

Não alimentem os Trolls
avatar
Zeca
Admin

Mensagens : 509
Data de inscrição : 12/05/2013
Localização : Santa Maria - RS

Voltar ao Topo Ir em baixo

Re: Acompanhamento e Previsões Julho / 2013

Mensagem por Conteúdo patrocinado


Conteúdo patrocinado


Voltar ao Topo Ir em baixo

Página 28 de 28 Anterior  1 ... 15 ... 26, 27, 28

Ver o tópico anterior Ver o tópico seguinte Voltar ao Topo

- Tópicos similares

 
Permissão deste fórum:
Você não pode responder aos tópicos neste fórum